sensor_id;sensor_type;location;lat;lon;timestamp;P1;durP1;ratioP1;P2;durP2;ratioP2
65045;SDS011;54657;52.022;5.534;2022-11-02T00:00:41;7.28;;;1.52;;
65045;SDS011;54657;52.022;5.534;2022-11-02T00:03:07;7.75;;;1.65;;
65045;SDS011;54657;52.022;5.534;2022-11-02T00:05:33;8.32;;;1.30;;
65045;SDS011;54657;52.022;5.534;2022-11-02T00:07:59;8.38;;;1.52;;
65045;SDS011;54657;52.022;5.534;2022-11-02T00:10:24;11.70;;;2.55;;
65045;SDS011;54657;52.022;5.534;2022-11-02T00:12:50;8.70;;;1.70;;
65045;SDS011;54657;52.022;5.534;2022-11-02T00:15:16;9.50;;;2.30;;
65045;SDS011;54657;52.022;5.534;2022-11-02T00:17:44;7.55;;;1.40;;
65045;SDS011;54657;52.022;5.534;2022-11-02T00:20:12;8.23;;;1.80;;
65045;SDS011;54657;52.022;5.534;2022-11-02T00:22:41;4.88;;;1.40;;
65045;SDS011;54657;52.022;5.534;2022-11-02T00:25:08;12.38;;;1.77;;
65045;SDS011;54657;52.022;5.534;2022-11-02T00:27:36;7.70;;;1.55;;
65045;SDS011;54657;52.022;5.534;2022-11-02T00:30:02;9.48;;;1.40;;
65045;SDS011;54657;52.022;5.534;2022-11-02T00:32:28;5.22;;;1.40;;
65045;SDS011;54657;52.022;5.534;2022-11-02T00:34:54;7.63;;;1.52;;
65045;SDS011;54657;52.022;5.534;2022-11-02T00:37:20;5.00;;;1.60;;
65045;SDS011;54657;52.022;5.534;2022-11-02T00:39:45;9.77;;;1.48;;
65045;SDS011;54657;52.022;5.534;2022-11-02T00:42:11;10.93;;;1.80;;
65045;SDS011;54657;52.022;5.534;2022-11-02T00:44:37;6.50;;;1.27;;
65045;SDS011;54657;52.022;5.534;2022-11-02T00:47:02;5.75;;;1.20;;
65045;SDS011;54657;52.022;5.534;2022-11-02T00:49:28;5.00;;;1.00;;
65045;SDS011;54657;52.022;5.534;2022-11-02T00:51:53;3.97;;;1.08;;
65045;SDS011;54657;52.022;5.534;2022-11-02T00:54:19;6.10;;;1.48;;
65045;SDS011;54657;52.022;5.534;2022-11-02T00:56:44;11.15;;;1.20;;
65045;SDS011;54657;52.022;5.534;2022-11-02T00:59:10;3.85;;;0.90;;
65045;SDS011;54657;52.022;5.534;2022-11-02T01:01:35;8.52;;;1.58;;
65045;SDS011;54657;52.022;5.534;2022-11-02T01:04:01;7.10;;;1.10;;
65045;SDS011;54657;52.022;5.534;2022-11-02T01:06:27;4.80;;;1.20;;
65045;SDS011;54657;52.022;5.534;2022-11-02T01:08:52;6.97;;;1.10;;
65045;SDS011;54657;52.022;5.534;2022-11-02T01:11:19;4.00;;;1.08;;
65045;SDS011;54657;52.022;5.534;2022-11-02T01:13:46;6.20;;;1.30;;
65045;SDS011;54657;52.022;5.534;2022-11-02T01:16:13;6.88;;;1.13;;
65045;SDS011;54657;52.022;5.534;2022-11-02T01:18:39;5.13;;;1.45;;
65045;SDS011;54657;52.022;5.534;2022-11-02T01:21:05;4.85;;;1.30;;
65045;SDS011;54657;52.022;5.534;2022-11-02T01:23:31;4.25;;;1.00;;
65045;SDS011;54657;52.022;5.534;2022-11-02T01:26:01;4.38;;;1.25;;
65045;SDS011;54657;52.022;5.534;2022-11-02T01:28:31;5.32;;;1.20;;
65045;SDS011;54657;52.022;5.534;2022-11-02T01:30:56;1.38;;;0.82;;
65045;SDS011;54657;52.022;5.534;2022-11-02T01:33:23;2.47;;;0.68;;
65045;SDS011;54657;52.022;5.534;2022-11-02T01:35:50;2.55;;;0.40;;
65045;SDS011;54657;52.022;5.534;2022-11-02T01:38:15;5.35;;;0.77;;
65045;SDS011;54657;52.022;5.534;2022-11-02T01:40:41;3.20;;;0.65;;
65045;SDS011;54657;52.022;5.534;2022-11-02T01:43:20;2.38;;;0.60;;
65045;SDS011;54657;52.022;5.534;2022-11-02T01:45:47;1.35;;;0.43;;
65045;SDS011;54657;52.022;5.534;2022-11-02T01:48:24;2.17;;;0.63;;
65045;SDS011;54657;52.022;5.534;2022-11-02T01:50:55;3.80;;;0.52;;
65045;SDS011;54657;52.022;5.534;2022-11-02T01:53:21;3.78;;;0.57;;
65045;SDS011;54657;52.022;5.534;2022-11-02T01:55:47;2.70;;;0.75;;
65045;SDS011;54657;52.022;5.534;2022-11-02T01:58:14;2.20;;;0.60;;
65045;SDS011;54657;52.022;5.534;2022-11-02T02:00:40;5.20;;;0.90;;
65045;SDS011;54657;52.022;5.534;2022-11-02T02:03:10;2.63;;;0.55;;
65045;SDS011;54657;52.022;5.534;2022-11-02T02:05:41;2.90;;;0.45;;
65045;SDS011;54657;52.022;5.534;2022-11-02T02:08:31;3.13;;;0.75;;
65045;SDS011;54657;52.022;5.534;2022-11-02T02:10:57;4.93;;;0.95;;
65045;SDS011;54657;52.022;5.534;2022-11-02T02:13:23;4.60;;;0.80;;
65045;SDS011;54657;52.022;5.534;2022-11-02T02:18:30;5.00;;;1.17;;
65045;SDS011;54657;52.022;5.534;2022-11-02T02:26:44;2.92;;;0.73;;
65045;SDS011;54657;52.022;5.534;2022-11-02T02:29:17;4.68;;;1.17;;
65045;SDS011;54657;52.022;5.534;2022-11-02T02:37:24;1.83;;;0.90;;
65045;SDS011;54657;52.022;5.534;2022-11-02T02:40:01;5.07;;;1.48;;
65045;SDS011;54657;52.022;5.534;2022-11-02T02:42:39;6.05;;;1.00;;
65045;SDS011;54657;52.022;5.534;2022-11-02T02:45:15;3.58;;;1.40;;
65045;SDS011;54657;52.022;5.534;2022-11-02T02:48:11;3.20;;;1.20;;
65045;SDS011;54657;52.022;5.534;2022-11-02T02:50:52;4.90;;;1.23;;
65045;SDS011;54657;52.022;5.534;2022-11-02T02:53:23;6.93;;;1.23;;
65045;SDS011;54657;52.022;5.534;2022-11-02T02:55:53;4.75;;;1.27;;
65045;SDS011;54657;52.022;5.534;2022-11-02T02:58:25;2.10;;;1.00;;
65045;SDS011;54657;52.022;5.534;2022-11-02T03:00:55;3.30;;;1.30;;
65045;SDS011;54657;52.022;5.534;2022-11-02T03:03:24;2.80;;;0.82;;
65045;SDS011;54657;52.022;5.534;2022-11-02T03:06:00;3.88;;;1.80;;
65045;SDS011;54657;52.022;5.534;2022-11-02T03:08:38;4.53;;;0.77;;
65045;SDS011;54657;52.022;5.534;2022-11-02T03:11:10;6.38;;;1.20;;
65045;SDS011;54657;52.022;5.534;2022-11-02T03:21:47;6.45;;;1.20;;
65045;SDS011;54657;52.022;5.534;2022-11-02T03:24:21;6.22;;;1.38;;
65045;SDS011;54657;52.022;5.534;2022-11-02T03:27:05;4.43;;;1.10;;
65045;SDS011;54657;52.022;5.534;2022-11-02T03:29:52;4.50;;;1.90;;
65045;SDS011;54657;52.022;5.534;2022-11-02T03:35:16;4.00;;;0.90;;
65045;SDS011;54657;52.022;5.534;2022-11-02T03:38:00;7.20;;;1.52;;
65045;SDS011;54657;52.022;5.534;2022-11-02T03:40:32;7.15;;;1.40;;
65045;SDS011;54657;52.022;5.534;2022-11-02T03:43:09;9.50;;;1.33;;
65045;SDS011;54657;52.022;5.534;2022-11-02T03:45:37;7.28;;;1.50;;
65045;SDS011;54657;52.022;5.534;2022-11-02T03:48:07;8.50;;;1.30;;
65045;SDS011;54657;52.022;5.534;2022-11-02T03:50:36;9.95;;;1.67;;
65045;SDS011;54657;52.022;5.534;2022-11-02T03:53:06;9.77;;;1.45;;
65045;SDS011;54657;52.022;5.534;2022-11-02T03:55:37;5.55;;;1.45;;
65045;SDS011;54657;52.022;5.534;2022-11-02T03:58:06;7.43;;;1.08;;
65045;SDS011;54657;52.022;5.534;2022-11-02T04:00:35;5.30;;;1.13;;
65045;SDS011;54657;52.022;5.534;2022-11-02T04:03:02;6.07;;;1.15;;
65045;SDS011;54657;52.022;5.534;2022-11-02T04:05:32;8.95;;;1.55;;
65045;SDS011;54657;52.022;5.534;2022-11-02T04:07:59;6.78;;;1.23;;
65045;SDS011;54657;52.022;5.534;2022-11-02T04:10:44;5.07;;;1.20;;
65045;SDS011;54657;52.022;5.534;2022-11-02T04:13:28;8.30;;;2.03;;
65045;SDS011;54657;52.022;5.534;2022-11-02T04:16:13;6.88;;;2.17;;
65045;SDS011;54657;52.022;5.534;2022-11-02T04:18:39;4.15;;;1.30;;
65045;SDS011;54657;52.022;5.534;2022-11-02T04:21:23;7.03;;;1.27;;
65045;SDS011;54657;52.022;5.534;2022-11-02T04:23:49;7.65;;;1.50;;
65045;SDS011;54657;52.022;5.534;2022-11-02T04:26:33;8.35;;;1.45;;
65045;SDS011;54657;52.022;5.534;2022-11-02T04:28:59;10.65;;;1.50;;
65045;SDS011;54657;52.022;5.534;2022-11-02T04:31:24;7.10;;;1.60;;
65045;SDS011;54657;52.022;5.534;2022-11-02T04:33:50;8.20;;;1.48;;
65045;SDS011;54657;52.022;5.534;2022-11-02T04:36:16;6.88;;;1.63;;
65045;SDS011;54657;52.022;5.534;2022-11-02T04:38:41;8.25;;;1.40;;
65045;SDS011;54657;52.022;5.534;2022-11-02T04:41:14;9.05;;;1.90;;
65045;SDS011;54657;52.022;5.534;2022-11-02T04:44:02;6.50;;;1.23;;
65045;SDS011;54657;52.022;5.534;2022-11-02T04:46:29;11.25;;;1.95;;
65045;SDS011;54657;52.022;5.534;2022-11-02T04:48:56;11.23;;;1.58;;
65045;SDS011;54657;52.022;5.534;2022-11-02T04:51:22;10.02;;;1.92;;
65045;SDS011;54657;52.022;5.534;2022-11-02T04:53:50;6.25;;;1.27;;
65045;SDS011;54657;52.022;5.534;2022-11-02T04:56:17;8.70;;;1.33;;
65045;SDS011;54657;52.022;5.534;2022-11-02T04:58:43;11.48;;;1.98;;
65045;SDS011;54657;52.022;5.534;2022-11-02T05:01:13;7.03;;;1.38;;
65045;SDS011;54657;52.022;5.534;2022-11-02T05:03:39;11.05;;;1.80;;
65045;SDS011;54657;52.022;5.534;2022-11-02T05:06:05;6.80;;;1.83;;
65045;SDS011;54657;52.022;5.534;2022-11-02T05:08:31;9.02;;;1.77;;
65045;SDS011;54657;52.022;5.534;2022-11-02T05:10:57;11.60;;;1.90;;
65045;SDS011;54657;52.022;5.534;2022-11-02T05:13:23;7.68;;;1.48;;
65045;SDS011;54657;52.022;5.534;2022-11-02T05:15:50;10.27;;;1.60;;
65045;SDS011;54657;52.022;5.534;2022-11-02T05:18:19;11.65;;;2.22;;
65045;SDS011;54657;52.022;5.534;2022-11-02T05:20:48;11.40;;;1.70;;
65045;SDS011;54657;52.022;5.534;2022-11-02T05:23:17;8.45;;;1.90;;
65045;SDS011;54657;52.022;5.534;2022-11-02T05:25:51;12.57;;;1.98;;
65045;SDS011;54657;52.022;5.534;2022-11-02T05:28:27;7.93;;;1.63;;
65045;SDS011;54657;52.022;5.534;2022-11-02T05:30:53;8.27;;;1.98;;
65045;SDS011;54657;52.022;5.534;2022-11-02T05:33:19;7.43;;;1.90;;
65045;SDS011;54657;52.022;5.534;2022-11-02T05:35:45;8.85;;;1.42;;
65045;SDS011;54657;52.022;5.534;2022-11-02T05:38:11;7.80;;;1.50;;
65045;SDS011;54657;52.022;5.534;2022-11-02T05:40:37;6.95;;;1.33;;
65045;SDS011;54657;52.022;5.534;2022-11-02T05:43:05;9.68;;;1.85;;
65045;SDS011;54657;52.022;5.534;2022-11-02T05:45:34;10.43;;;1.90;;
65045;SDS011;54657;52.022;5.534;2022-11-02T05:48:01;11.00;;;1.85;;
65045;SDS011;54657;52.022;5.534;2022-11-02T05:50:30;9.75;;;1.90;;
65045;SDS011;54657;52.022;5.534;2022-11-02T05:52:56;8.15;;;1.98;;
65045;SDS011;54657;52.022;5.534;2022-11-02T05:55:21;6.15;;;1.60;;
65045;SDS011;54657;52.022;5.534;2022-11-02T05:57:49;8.43;;;1.95;;
65045;SDS011;54657;52.022;5.534;2022-11-02T06:00:19;7.80;;;1.60;;
65045;SDS011;54657;52.022;5.534;2022-11-02T06:02:46;8.88;;;1.50;;
65045;SDS011;54657;52.022;5.534;2022-11-02T06:05:19;15.75;;;2.42;;
65045;SDS011;54657;52.022;5.534;2022-11-02T06:07:44;6.18;;;1.27;;
65045;SDS011;54657;52.022;5.534;2022-11-02T06:10:10;7.25;;;1.50;;
65045;SDS011;54657;52.022;5.534;2022-11-02T06:12:35;7.38;;;1.33;;
65045;SDS011;54657;52.022;5.534;2022-11-02T06:15:01;8.90;;;2.30;;
65045;SDS011;54657;52.022;5.534;2022-11-02T06:17:27;7.18;;;1.65;;
65045;SDS011;54657;52.022;5.534;2022-11-02T06:19:52;6.85;;;1.67;;
65045;SDS011;54657;52.022;5.534;2022-11-02T06:22:18;9.95;;;1.98;;
65045;SDS011;54657;52.022;5.534;2022-11-02T06:24:43;7.70;;;1.90;;
65045;SDS011;54657;52.022;5.534;2022-11-02T06:27:09;13.18;;;1.55;;
65045;SDS011;54657;52.022;5.534;2022-11-02T06:29:34;5.85;;;1.35;;
65045;SDS011;54657;52.022;5.534;2022-11-02T06:32:00;12.85;;;2.10;;
65045;SDS011;54657;52.022;5.534;2022-11-02T06:34:25;6.13;;;1.33;;
65045;SDS011;54657;52.022;5.534;2022-11-02T06:36:51;11.50;;;1.40;;
65045;SDS011;54657;52.022;5.534;2022-11-02T06:39:17;9.77;;;1.60;;
65045;SDS011;54657;52.022;5.534;2022-11-02T06:41:42;4.15;;;1.10;;
65045;SDS011;54657;52.022;5.534;2022-11-02T06:44:08;8.45;;;1.75;;
65045;SDS011;54657;52.022;5.534;2022-11-02T06:46:33;8.25;;;1.92;;
65045;SDS011;54657;52.022;5.534;2022-11-02T06:48:59;8.32;;;1.55;;
65045;SDS011;54657;52.022;5.534;2022-11-02T06:51:24;6.82;;;1.20;;
65045;SDS011;54657;52.022;5.534;2022-11-02T06:53:50;5.95;;;1.52;;
65045;SDS011;54657;52.022;5.534;2022-11-02T06:56:15;9.63;;;1.95;;
65045;SDS011;54657;52.022;5.534;2022-11-02T06:58:41;12.75;;;1.52;;
65045;SDS011;54657;52.022;5.534;2022-11-02T07:01:07;7.20;;;1.20;;
65045;SDS011;54657;52.022;5.534;2022-11-02T07:03:33;10.90;;;1.55;;
65045;SDS011;54657;52.022;5.534;2022-11-02T07:05:59;7.95;;;1.50;;
65045;SDS011;54657;52.022;5.534;2022-11-02T07:08:25;6.43;;;1.50;;
65045;SDS011;54657;52.022;5.534;2022-11-02T07:10:51;7.35;;;1.30;;
65045;SDS011;54657;52.022;5.534;2022-11-02T07:13:17;9.10;;;1.42;;
65045;SDS011;54657;52.022;5.534;2022-11-02T07:15:43;10.65;;;1.40;;
65045;SDS011;54657;52.022;5.534;2022-11-02T07:18:09;6.18;;;1.52;;
65045;SDS011;54657;52.022;5.534;2022-11-02T07:20:35;5.65;;;1.20;;
65045;SDS011;54657;52.022;5.534;2022-11-02T07:23:00;9.93;;;1.48;;
65045;SDS011;54657;52.022;5.534;2022-11-02T07:25:28;9.30;;;1.50;;
65045;SDS011;54657;52.022;5.534;2022-11-02T07:27:55;8.40;;;1.45;;
65045;SDS011;54657;52.022;5.534;2022-11-02T07:30:21;5.38;;;1.23;;
65045;SDS011;54657;52.022;5.534;2022-11-02T07:32:46;3.83;;;1.35;;
65045;SDS011;54657;52.022;5.534;2022-11-02T07:35:12;6.13;;;1.40;;
65045;SDS011;54657;52.022;5.534;2022-11-02T07:37:39;5.45;;;1.55;;
65045;SDS011;54657;52.022;5.534;2022-11-02T07:40:06;9.27;;;1.35;;
65045;SDS011;54657;52.022;5.534;2022-11-02T07:42:33;8.25;;;1.58;;
65045;SDS011;54657;52.022;5.534;2022-11-02T07:44:59;10.23;;;1.40;;
65045;SDS011;54657;52.022;5.534;2022-11-02T07:47:25;8.38;;;1.40;;
65045;SDS011;54657;52.022;5.534;2022-11-02T07:49:50;13.13;;;1.85;;
65045;SDS011;54657;52.022;5.534;2022-11-02T07:52:16;6.75;;;1.60;;
65045;SDS011;54657;52.022;5.534;2022-11-02T07:54:42;8.40;;;1.88;;
65045;SDS011;54657;52.022;5.534;2022-11-02T07:57:07;6.57;;;1.50;;
65045;SDS011;54657;52.022;5.534;2022-11-02T07:59:33;12.88;;;1.85;;
65045;SDS011;54657;52.022;5.534;2022-11-02T08:02:00;8.25;;;1.42;;
65045;SDS011;54657;52.022;5.534;2022-11-02T08:04:26;4.88;;;1.23;;
65045;SDS011;54657;52.022;5.534;2022-11-02T08:06:51;6.10;;;1.35;;
65045;SDS011;54657;52.022;5.534;2022-11-02T08:09:17;10.02;;;1.48;;
65045;SDS011;54657;52.022;5.534;2022-11-02T08:11:43;7.45;;;1.50;;
65045;SDS011;54657;52.022;5.534;2022-11-02T08:14:08;2.80;;;1.15;;
65045;SDS011;54657;52.022;5.534;2022-11-02T08:16:34;8.40;;;1.30;;
65045;SDS011;54657;52.022;5.534;2022-11-02T08:18:59;9.90;;;1.55;;
65045;SDS011;54657;52.022;5.534;2022-11-02T08:21:25;6.97;;;1.33;;
65045;SDS011;54657;52.022;5.534;2022-11-02T08:23:50;8.13;;;1.73;;
65045;SDS011;54657;52.022;5.534;2022-11-02T08:26:16;4.72;;;1.20;;
65045;SDS011;54657;52.022;5.534;2022-11-02T08:28:42;8.00;;;1.67;;
65045;SDS011;54657;52.022;5.534;2022-11-02T08:31:13;4.43;;;1.20;;
65045;SDS011;54657;52.022;5.534;2022-11-02T08:33:40;6.22;;;1.80;;
65045;SDS011;54657;52.022;5.534;2022-11-02T08:36:09;8.23;;;1.50;;
65045;SDS011;54657;52.022;5.534;2022-11-02T08:38:35;11.27;;;1.77;;
65045;SDS011;54657;52.022;5.534;2022-11-02T08:41:00;10.05;;;1.20;;
65045;SDS011;54657;52.022;5.534;2022-11-02T08:43:26;9.30;;;1.70;;
65045;SDS011;54657;52.022;5.534;2022-11-02T08:45:52;6.57;;;1.38;;
65045;SDS011;54657;52.022;5.534;2022-11-02T08:48:23;10.60;;;1.55;;
65045;SDS011;54657;52.022;5.534;2022-11-02T08:50:49;6.43;;;1.52;;
65045;SDS011;54657;52.022;5.534;2022-11-02T08:53:17;5.72;;;1.08;;
65045;SDS011;54657;52.022;5.534;2022-11-02T08:55:43;10.60;;;1.92;;
65045;SDS011;54657;52.022;5.534;2022-11-02T08:58:08;9.38;;;1.60;;
65045;SDS011;54657;52.022;5.534;2022-11-02T09:00:35;5.88;;;1.27;;
65045;SDS011;54657;52.022;5.534;2022-11-02T09:03:10;7.63;;;1.05;;
65045;SDS011;54657;52.022;5.534;2022-11-02T09:05:38;6.50;;;1.70;;
65045;SDS011;54657;52.022;5.534;2022-11-02T09:08:05;7.10;;;2.55;;
65045;SDS011;54657;52.022;5.534;2022-11-02T09:10:34;7.60;;;1.38;;
65045;SDS011;54657;52.022;5.534;2022-11-02T09:13:01;4.65;;;1.42;;
65045;SDS011;54657;52.022;5.534;2022-11-02T09:15:28;10.77;;;1.63;;
65045;SDS011;54657;52.022;5.534;2022-11-02T09:17:54;9.45;;;1.70;;
65045;SDS011;54657;52.022;5.534;2022-11-02T09:20:20;4.88;;;1.83;;
65045;SDS011;54657;52.022;5.534;2022-11-02T09:22:46;12.05;;;2.00;;
65045;SDS011;54657;52.022;5.534;2022-11-02T09:25:12;5.28;;;1.42;;
65045;SDS011;54657;52.022;5.534;2022-11-02T09:27:39;4.95;;;0.98;;
65045;SDS011;54657;52.022;5.534;2022-11-02T09:30:05;4.88;;;1.30;;
65045;SDS011;54657;52.022;5.534;2022-11-02T09:32:31;10.88;;;1.65;;
65045;SDS011;54657;52.022;5.534;2022-11-02T09:35:05;10.13;;;1.85;;
65045;SDS011;54657;52.022;5.534;2022-11-02T09:37:32;5.63;;;1.42;;
65045;SDS011;54657;52.022;5.534;2022-11-02T09:39:58;8.55;;;1.63;;
65045;SDS011;54657;52.022;5.534;2022-11-02T09:42:27;6.45;;;1.70;;
65045;SDS011;54657;52.022;5.534;2022-11-02T09:45:15;9.93;;;1.75;;
65045;SDS011;54657;52.022;5.534;2022-11-02T09:47:49;6.97;;;1.70;;
65045;SDS011;54657;52.022;5.534;2022-11-02T09:50:23;8.73;;;1.75;;
65045;SDS011;54657;52.022;5.534;2022-11-02T09:52:56;8.52;;;1.50;;
65045;SDS011;54657;52.022;5.534;2022-11-02T09:55:27;8.20;;;1.50;;
65045;SDS011;54657;52.022;5.534;2022-11-02T09:57:58;7.78;;;1.27;;
65045;SDS011;54657;52.022;5.534;2022-11-02T10:00:38;6.60;;;1.48;;
65045;SDS011;54657;52.022;5.534;2022-11-02T10:03:17;8.20;;;1.38;;
65045;SDS011;54657;52.022;5.534;2022-11-02T10:14:23;6.97;;;1.48;;
65045;SDS011;54657;52.022;5.534;2022-11-02T10:16:56;8.75;;;1.65;;
65045;SDS011;54657;52.022;5.534;2022-11-02T10:19:23;4.10;;;1.33;;
65045;SDS011;54657;52.022;5.534;2022-11-02T10:21:51;6.47;;;1.48;;
65045;SDS011;54657;52.022;5.534;2022-11-02T10:26:49;7.18;;;1.50;;
65045;SDS011;54657;52.022;5.534;2022-11-02T10:29:22;5.85;;;1.80;;
65045;SDS011;54657;52.022;5.534;2022-11-02T10:32:11;8.23;;;1.88;;
65045;SDS011;54657;52.022;5.534;2022-11-02T10:34:38;5.68;;;1.45;;
65045;SDS011;54657;52.022;5.534;2022-11-02T10:37:09;7.13;;;1.40;;
65045;SDS011;54657;52.022;5.534;2022-11-02T10:42:11;6.68;;;1.73;;
65045;SDS011;54657;52.022;5.534;2022-11-02T10:50:47;9.20;;;1.70;;
65045;SDS011;54657;52.022;5.534;2022-11-02T10:53:20;7.88;;;1.83;;
65045;SDS011;54657;52.022;5.534;2022-11-02T10:58:19;6.90;;;1.75;;
65045;SDS011;54657;52.022;5.534;2022-11-02T11:00:45;8.52;;;1.90;;
65045;SDS011;54657;52.022;5.534;2022-11-02T11:08:35;7.43;;;1.70;;
65045;SDS011;54657;52.022;5.534;2022-11-02T11:11:24;9.02;;;1.95;;
65045;SDS011;54657;52.022;5.534;2022-11-02T11:16:40;6.80;;;1.60;;
65045;SDS011;54657;52.022;5.534;2022-11-02T11:19:19;10.90;;;2.00;;
65045;SDS011;54657;52.022;5.534;2022-11-02T11:21:59;6.78;;;1.55;;
65045;SDS011;54657;52.022;5.534;2022-11-02T11:24:32;4.55;;;1.58;;
65045;SDS011;54657;52.022;5.534;2022-11-02T11:29:53;8.55;;;1.50;;
65045;SDS011;54657;52.022;5.534;2022-11-02T11:32:25;12.70;;;2.10;;
65045;SDS011;54657;52.022;5.534;2022-11-02T11:34:55;9.38;;;1.38;;
65045;SDS011;54657;52.022;5.534;2022-11-02T11:37:28;8.50;;;1.90;;
65045;SDS011;54657;52.022;5.534;2022-11-02T11:39:56;10.90;;;2.08;;
65045;SDS011;54657;52.022;5.534;2022-11-02T11:42:26;8.27;;;1.90;;
65045;SDS011;54657;52.022;5.534;2022-11-02T11:44:55;7.18;;;1.42;;
65045;SDS011;54657;52.022;5.534;2022-11-02T11:47:25;10.43;;;1.58;;
65045;SDS011;54657;52.022;5.534;2022-11-02T11:49:55;11.07;;;1.85;;
65045;SDS011;54657;52.022;5.534;2022-11-02T11:52:28;7.95;;;1.75;;
65045;SDS011;54657;52.022;5.534;2022-11-02T11:54:56;10.45;;;2.00;;
65045;SDS011;54657;52.022;5.534;2022-11-02T11:57:27;9.43;;;1.40;;
65045;SDS011;54657;52.022;5.534;2022-11-02T11:59:58;12.30;;;1.80;;
65045;SDS011;54657;52.022;5.534;2022-11-02T12:02:32;10.70;;;2.00;;
65045;SDS011;54657;52.022;5.534;2022-11-02T12:05:17;10.93;;;1.83;;
65045;SDS011;54657;52.022;5.534;2022-11-02T12:10:43;9.75;;;1.58;;
65045;SDS011;54657;52.022;5.534;2022-11-02T12:13:43;8.00;;;1.88;;
65045;SDS011;54657;52.022;5.534;2022-11-02T12:16:51;10.98;;;1.40;;
65045;SDS011;54657;52.022;5.534;2022-11-02T12:30:12;7.38;;;1.35;;
65045;SDS011;54657;52.022;5.534;2022-11-02T12:41:10;8.18;;;1.48;;
65045;SDS011;54657;52.022;5.534;2022-11-02T12:43:39;8.20;;;1.52;;
65045;SDS011;54657;52.022;5.534;2022-11-02T12:47:01;6.43;;;1.20;;
65045;SDS011;54657;52.022;5.534;2022-11-02T12:49:32;5.57;;;1.38;;
65045;SDS011;54657;52.022;5.534;2022-11-02T12:54:42;6.75;;;1.67;;
65045;SDS011;54657;52.022;5.534;2022-11-02T12:57:13;5.50;;;1.30;;
65045;SDS011;54657;52.022;5.534;2022-11-02T12:59:41;6.93;;;1.38;;
65045;SDS011;54657;52.022;5.534;2022-11-02T13:04:49;6.80;;;1.40;;
65045;SDS011;54657;52.022;5.534;2022-11-02T13:07:25;6.57;;;1.23;;
65045;SDS011;54657;52.022;5.534;2022-11-02T13:12:44;8.18;;;1.40;;
65045;SDS011;54657;52.022;5.534;2022-11-02T13:15:14;6.20;;;1.42;;
65045;SDS011;54657;52.022;5.534;2022-11-02T13:17:44;8.80;;;2.35;;
65045;SDS011;54657;52.022;5.534;2022-11-02T13:20:17;5.90;;;1.45;;
65045;SDS011;54657;52.022;5.534;2022-11-02T13:22:54;10.20;;;1.90;;
65045;SDS011;54657;52.022;5.534;2022-11-02T13:25:39;5.85;;;1.90;;
65045;SDS011;54657;52.022;5.534;2022-11-02T13:28:12;8.48;;;1.52;;
65045;SDS011;54657;52.022;5.534;2022-11-02T13:30:43;8.07;;;1.70;;
65045;SDS011;54657;52.022;5.534;2022-11-02T13:33:15;5.93;;;1.05;;
65045;SDS011;54657;52.022;5.534;2022-11-02T13:35:44;8.25;;;1.80;;
65045;SDS011;54657;52.022;5.534;2022-11-02T13:40:38;3.88;;;1.30;;
65045;SDS011;54657;52.022;5.534;2022-11-02T13:51:22;12.23;;;1.50;;
65045;SDS011;54657;52.022;5.534;2022-11-02T13:53:53;5.60;;;1.48;;
65045;SDS011;54657;52.022;5.534;2022-11-02T13:56:24;8.88;;;2.05;;
65045;SDS011;54657;52.022;5.534;2022-11-02T13:59:38;7.75;;;1.73;;
65045;SDS011;54657;52.022;5.534;2022-11-02T14:01:47;8.18;;;1.50;;
65045;SDS011;54657;52.022;5.534;2022-11-02T14:04:16;8.35;;;1.85;;
65045;SDS011;54657;52.022;5.534;2022-11-02T14:12:09;7.47;;;2.35;;
65045;SDS011;54657;52.022;5.534;2022-11-02T14:14:43;9.13;;;2.40;;
65045;SDS011;54657;52.022;5.534;2022-11-02T14:17:10;9.35;;;2.50;;
65045;SDS011;54657;52.022;5.534;2022-11-02T14:19:48;8.95;;;2.47;;
65045;SDS011;54657;52.022;5.534;2022-11-02T14:22:18;9.15;;;2.33;;
65045;SDS011;54657;52.022;5.534;2022-11-02T14:46:31;11.27;;;2.28;;
65045;SDS011;54657;52.022;5.534;2022-11-02T14:49:04;7.78;;;1.80;;
65045;SDS011;54657;52.022;5.534;2022-11-02T14:51:39;5.35;;;2.15;;
65045;SDS011;54657;52.022;5.534;2022-11-02T14:54:15;5.47;;;1.67;;
65045;SDS011;54657;52.022;5.534;2022-11-02T14:56:50;9.35;;;2.00;;
65045;SDS011;54657;52.022;5.534;2022-11-02T14:59:20;7.95;;;1.83;;
65045;SDS011;54657;52.022;5.534;2022-11-02T15:01:52;10.23;;;1.77;;
65045;SDS011;54657;52.022;5.534;2022-11-02T15:04:20;7.00;;;1.73;;
65045;SDS011;54657;52.022;5.534;2022-11-02T15:06:51;8.85;;;1.67;;
65045;SDS011;54657;52.022;5.534;2022-11-02T15:12:22;5.55;;;1.60;;
65045;SDS011;54657;52.022;5.534;2022-11-02T15:14:57;8.00;;;1.75;;
65045;SDS011;54657;52.022;5.534;2022-11-02T15:17:49;9.00;;;1.95;;
65045;SDS011;54657;52.022;5.534;2022-11-02T15:20:27;5.78;;;2.05;;
65045;SDS011;54657;52.022;5.534;2022-11-02T15:23:04;8.80;;;2.17;;
65045;SDS011;54657;52.022;5.534;2022-11-02T15:25:39;6.95;;;1.90;;
65045;SDS011;54657;52.022;5.534;2022-11-02T15:28:13;7.53;;;1.83;;
65045;SDS011;54657;52.022;5.534;2022-11-02T15:30:42;11.52;;;2.03;;
65045;SDS011;54657;52.022;5.534;2022-11-02T15:33:14;7.45;;;1.70;;
65045;SDS011;54657;52.022;5.534;2022-11-02T15:35:57;10.45;;;1.70;;
65045;SDS011;54657;52.022;5.534;2022-11-02T15:38:26;9.75;;;1.58;;
65045;SDS011;54657;52.022;5.534;2022-11-02T15:55:30;10.73;;;1.63;;
65045;SDS011;54657;52.022;5.534;2022-11-02T15:58:11;9.75;;;1.70;;
65045;SDS011;54657;52.022;5.534;2022-11-02T16:00:43;9.65;;;1.70;;
65045;SDS011;54657;52.022;5.534;2022-11-02T16:03:47;8.02;;;1.80;;
65045;SDS011;54657;52.022;5.534;2022-11-02T16:06:28;11.52;;;2.28;;
65045;SDS011;54657;52.022;5.534;2022-11-02T16:12:19;7.80;;;1.98;;
65045;SDS011;54657;52.022;5.534;2022-11-02T16:15:09;7.60;;;2.75;;
65045;SDS011;54657;52.022;5.534;2022-11-02T16:17:36;10.93;;;2.22;;
65045;SDS011;54657;52.022;5.534;2022-11-02T16:23:11;4.93;;;1.63;;
65045;SDS011;54657;52.022;5.534;2022-11-02T16:25:40;7.93;;;1.70;;
65045;SDS011;54657;52.022;5.534;2022-11-02T16:30:41;11.20;;;2.50;;
65045;SDS011;54657;52.022;5.534;2022-11-02T16:33:09;9.88;;;2.80;;
65045;SDS011;54657;52.022;5.534;2022-11-02T16:35:38;10.05;;;3.85;;
65045;SDS011;54657;52.022;5.534;2022-11-02T16:38:04;8.48;;;2.70;;
65045;SDS011;54657;52.022;5.534;2022-11-02T16:40:30;10.18;;;2.35;;
65045;SDS011;54657;52.022;5.534;2022-11-02T16:42:56;18.55;;;3.50;;
65045;SDS011;54657;52.022;5.534;2022-11-02T16:45:30;10.75;;;2.72;;
65045;SDS011;54657;52.022;5.534;2022-11-02T16:47:58;8.82;;;2.80;;
65045;SDS011;54657;52.022;5.534;2022-11-02T16:50:24;10.60;;;2.58;;
65045;SDS011;54657;52.022;5.534;2022-11-02T16:52:55;9.27;;;2.42;;
65045;SDS011;54657;52.022;5.534;2022-11-02T16:55:36;11.65;;;2.53;;
65045;SDS011;54657;52.022;5.534;2022-11-02T16:58:11;9.90;;;2.70;;
65045;SDS011;54657;52.022;5.534;2022-11-02T17:00:50;9.35;;;3.05;;
65045;SDS011;54657;52.022;5.534;2022-11-02T17:03:34;9.80;;;2.53;;
65045;SDS011;54657;52.022;5.534;2022-11-02T17:06:01;10.57;;;2.45;;
65045;SDS011;54657;52.022;5.534;2022-11-02T17:08:30;7.00;;;1.63;;
65045;SDS011;54657;52.022;5.534;2022-11-02T17:10:59;8.23;;;1.85;;
65045;SDS011;54657;52.022;5.534;2022-11-02T17:13:28;7.55;;;2.47;;
65045;SDS011;54657;52.022;5.534;2022-11-02T17:16:01;12.38;;;3.10;;
65045;SDS011;54657;52.022;5.534;2022-11-02T17:18:37;5.32;;;2.22;;
65045;SDS011;54657;52.022;5.534;2022-11-02T17:23:41;15.02;;;1.83;;
65045;SDS011;54657;52.022;5.534;2022-11-02T17:28:47;9.13;;;1.95;;
65045;SDS011;54657;52.022;5.534;2022-11-02T17:31:15;9.85;;;2.08;;
65045;SDS011;54657;52.022;5.534;2022-11-02T17:33:42;7.88;;;1.90;;
65045;SDS011;54657;52.022;5.534;2022-11-02T17:36:08;12.25;;;2.53;;
65045;SDS011;54657;52.022;5.534;2022-11-02T17:38:33;7.00;;;1.80;;
65045;SDS011;54657;52.022;5.534;2022-11-02T17:41:00;6.88;;;2.05;;